Time;durP1;ratioP1;P1;durP2;ratioP2;P2;SDS_P1;SDS_P2;PMS_P1;PMS_P2;Temp;Humidity;BMP_temperature;BMP_pressure;BME280_temperature;BME280_humidity;BME280_pressure;Samples;Min_cycle;Max_cycle;Signal;HPM_P1;HPM_P2
2023/05/26 00:00:28;;;;;;;26.25;6.88;;;11.00;99.90;;;;;;5036616;28;20469;-60
2023/05/26 00:02:55;;;;;;;29.10;7.28;;;11.10;99.90;;;;;;5036175;28;20426;-60
2023/05/26 00:05:22;;;;;;;36.25;7.50;;;11.00;99.90;;;;;;5036297;28;20042;-61
2023/05/26 00:07:48;;;;;;;28.63;6.60;;;11.00;99.90;;;;;;5035849;28;20052;-60
2023/05/26 00:10:15;;;;;;;29.48;7.25;;;10.90;99.90;;;;;;5036696;28;20491;-59
2023/05/26 00:12:42;;;;;;;30.02;6.80;;;10.90;99.90;;;;;;5036228;28;20037;-59
2023/05/26 00:15:09;;;;;;;30.90;6.40;;;10.80;99.90;;;;;;5035692;28;20041;-59
2023/05/26 00:17:36;;;;;;;33.88;6.57;;;10.80;99.90;;;;;;5036210;28;20041;-60
2023/05/26 00:20:04;;;;;;;27.30;5.95;;;10.80;99.90;;;;;;5035684;28;20132;-60
2023/05/26 00:22:31;;;;;;;36.00;6.88;;;10.80;99.90;;;;;;5035854;28;20041;-59
2023/05/26 00:24:58;;;;;;;26.55;5.75;;;10.80;99.90;;;;;;5035566;28;20034;-59
2023/05/26 00:27:24;;;;;;;28.08;6.55;;;10.70;99.90;;;;;;5035574;28;20046;-59
2023/05/26 00:29:51;;;;;;;26.73;6.90;;;10.60;99.90;;;;;;5034240;28;20049;-60
2023/05/26 00:32:18;;;;;;;30.38;6.40;;;10.60;99.90;;;;;;5034709;28;20052;-58
2023/05/26 00:34:45;;;;;;;31.05;6.38;;;10.70;99.90;;;;;;5034072;28;20412;-59
2023/05/26 00:37:12;;;;;;;35.33;7.32;;;10.70;99.90;;;;;;5035258;28;20125;-59
2023/05/26 00:39:39;;;;;;;26.73;6.30;;;10.70;99.90;;;;;;5035486;28;20033;-59
2023/05/26 00:42:06;;;;;;;32.38;7.07;;;10.70;99.90;;;;;;5035699;28;20040;-59
2023/05/26 00:44:33;;;;;;;28.63;6.97;;;10.60;99.90;;;;;;5035777;28;20073;-61
2023/05/26 00:46:59;;;;;;;35.88;6.68;;;10.60;99.90;;;;;;5034394;28;20411;-60
2023/05/26 00:49:26;;;;;;;26.10;6.53;;;10.60;99.90;;;;;;5035100;28;20034;-58
2023/05/26 00:51:53;;;;;;;26.08;5.97;;;10.60;99.90;;;;;;5035314;28;20503;-59
2023/05/26 00:54:21;;;;;;;25.58;6.20;;;10.60;99.90;;;;;;5034386;28;20050;-60
2023/05/26 00:56:47;;;;;;;30.00;6.25;;;10.60;99.90;;;;;;5035362;28;20453;-60
2023/05/26 00:59:14;;;;;;;26.88;6.20;;;10.50;99.90;;;;;;5035068;28;20033;-58
2023/05/26 01:01:41;;;;;;;24.40;5.68;;;10.50;99.90;;;;;;5033619;28;20132;-60
2023/05/26 01:04:09;;;;;;;34.80;6.72;;;10.50;99.90;;;;;;5034247;28;20041;-60
2023/05/26 01:06:36;;;;;;;28.75;6.45;;;10.50;99.90;;;;;;5033499;28;20440;-60
2023/05/26 01:09:03;;;;;;;27.95;5.88;;;10.50;99.90;;;;;;5035233;28;20480;-59
2023/05/26 01:11:30;;;;;;;27.95;6.18;;;10.50;99.90;;;;;;5035373;28;20049;-60
2023/05/26 01:13:57;;;;;;;35.28;5.95;;;10.50;99.90;;;;;;5035181;28;20491;-59
2023/05/26 01:16:24;;;;;;;25.10;5.80;;;10.50;99.90;;;;;;5033322;28;20092;-61
2023/05/26 01:18:52;;;;;;;31.48;5.57;;;10.50;99.90;;;;;;5034939;28;20069;-60
2023/05/26 01:21:21;;;;;;;32.47;6.63;;;10.50;99.90;;;;;;5035122;28;20041;-61
2023/05/26 01:23:48;;;;;;;29.10;6.35;;;10.50;99.90;;;;;;5035001;28;20049;-61
2023/05/26 01:26:15;;;;;;;24.77;5.25;;;10.50;99.90;;;;;;5033541;28;20037;-59
2023/05/26 01:28:42;;;;;;;27.05;6.18;;;10.50;99.90;;;;;;5034869;28;20037;-60
2023/05/26 01:31:09;;;;;;;28.02;6.13;;;10.50;99.90;;;;;;5034341;28;20484;-60
2023/05/26 01:33:36;;;;;;;34.17;7.65;;;10.60;99.90;;;;;;5034796;28;20384;-60
2023/05/26 01:36:03;;;;;;;25.33;5.78;;;10.60;99.90;;;;;;5034338;28;20060;-60
2023/05/26 01:38:30;;;;;;;31.02;5.68;;;10.60;99.90;;;;;;5033349;28;20049;-60
2023/05/26 01:40:56;;;;;;;22.60;5.43;;;10.70;99.90;;;;;;5032826;28;20435;-59
2023/05/26 01:43:23;;;;;;;29.42;6.00;;;10.60;99.90;;;;;;5032722;28;20507;-60
2023/05/26 01:45:50;;;;;;;29.90;6.60;;;10.70;99.90;;;;;;5034274;28;20042;-60
2023/05/26 01:48:17;;;;;;;30.67;6.80;;;10.70;99.90;;;;;;5033095;28;20045;-60
2023/05/26 01:50:45;;;;;;;36.58;6.90;;;10.80;99.90;;;;;;5034017;28;20125;-61
2023/05/26 01:53:12;;;;;;;33.50;6.05;;;10.80;99.90;;;;;;5034268;28;20033;-59
2023/05/26 01:55:40;;;;;;;22.70;5.75;;;10.80;99.90;;;;;;5033956;28;20136;-60
2023/05/26 01:58:07;;;;;;;29.00;6.30;;;10.80;99.90;;;;;;5032848;28;20041;-60
2023/05/26 02:00:36;;;;;;;28.13;6.05;;;10.90;99.90;;;;;;5032541;28;20045;-60
2023/05/26 02:03:02;;;;;;;28.90;7.50;;;10.90;99.90;;;;;;5034030;28;20041;-60
2023/05/26 02:05:30;;;;;;;24.67;6.55;;;10.90;99.90;;;;;;5033879;28;20039;-61
2023/05/26 02:07:57;;;;;;;27.67;5.90;;;10.90;99.90;;;;;;5032633;28;20049;-59
2023/05/26 02:10:23;;;;;;;23.48;5.65;;;10.90;99.90;;;;;;5032525;28;20041;-61
2023/05/26 02:12:50;;;;;;;22.90;5.53;;;10.80;99.90;;;;;;5016253;28;20061;-61
2023/05/26 02:15:17;;;;;;;26.20;5.40;;;10.80;99.90;;;;;;5032426;28;20049;-59
2023/05/26 02:17:44;;;;;;;31.60;5.90;;;10.80;99.90;;;;;;5033724;28;20041;-60
2023/05/26 02:20:10;;;;;;;31.17;6.13;;;10.80;99.90;;;;;;5031539;28;20120;-60
2023/05/26 02:22:38;;;;;;;29.42;6.82;;;10.80;99.90;;;;;;5032452;28;20044;-60
2023/05/26 02:25:05;;;;;;;26.23;6.22;;;10.80;99.90;;;;;;5033496;28;20507;-60
2023/05/26 02:27:32;;;;;;;29.83;5.75;;;10.80;99.90;;;;;;5033351;28;20053;-60
2023/05/26 02:29:59;;;;;;;27.70;6.45;;;10.80;99.90;;;;;;5033846;28;20381;-60
2023/05/26 02:32:26;;;;;;;26.88;5.68;;;10.80;99.90;;;;;;5032653;28;20068;-60
2023/05/26 02:34:53;;;;;;;30.40;6.78;;;10.80;99.90;;;;;;5032491;28;20061;-61
2023/05/26 02:37:20;;;;;;;30.30;6.05;;;10.80;99.90;;;;;;5033201;28;20435;-60
2023/05/26 02:39:47;;;;;;;27.88;6.05;;;10.80;99.90;;;;;;5032116;28;20049;-60
2023/05/26 02:42:13;;;;;;;24.30;5.97;;;10.90;99.90;;;;;;5033300;28;20052;-60
2023/05/26 02:44:40;;;;;;;25.67;6.30;;;10.80;99.90;;;;;;5032342;28;20149;-60
2023/05/26 02:47:07;;;;;;;25.75;5.22;;;10.80;99.90;;;;;;5016067;28;20053;-60
2023/05/26 02:49:34;;;;;;;25.85;5.43;;;10.80;99.90;;;;;;5033888;28;20045;-60
2023/05/26 02:52:01;;;;;;;30.20;6.97;;;10.80;99.90;;;;;;5032547;28;20511;-58
2023/05/26 02:54:27;;;;;;;30.85;6.28;;;10.80;99.90;;;;;;5033141;28;20041;-60
2023/05/26 02:56:54;;;;;;;27.80;5.75;;;10.80;99.90;;;;;;5032064;28;20037;-59
2023/05/26 02:59:21;;;;;;;31.45;6.15;;;10.80;99.90;;;;;;5033386;28;20044;-60
2023/05/26 03:01:48;;;;;;;27.65;5.82;;;10.70;99.90;;;;;;5033298;28;20037;-60
2023/05/26 03:04:15;;;;;;;28.58;6.10;;;10.70;99.90;;;;;;5033041;28;20050;-60
2023/05/26 03:06:42;;;;;;;26.75;6.07;;;10.70;99.90;;;;;;5033018;28;20141;-61
2023/05/26 03:09:10;;;;;;;29.58;6.45;;;10.70;99.90;;;;;;5032214;28;20132;-61
2023/05/26 03:11:37;;;;;;;27.77;6.05;;;10.70;99.90;;;;;;5032383;28;20431;-60
2023/05/26 03:14:05;;;;;;;30.92;6.20;;;10.70;99.90;;;;;;5032905;28;20045;-60
2023/05/26 03:16:32;;;;;;;28.27;6.00;;;10.70;99.90;;;;;;5031771;28;20045;-60
2023/05/26 03:19:00;;;;;;;30.05;6.38;;;10.60;99.90;;;;;;5031825;28;20550;-59
2023/05/26 03:21:27;;;;;;;29.75;6.82;;;10.60;99.90;;;;;;5031899;28;20042;-61
2023/05/26 03:24:15;;;;;;;28.52;6.43;;;10.70;99.90;;;;;;5031672;28;20037;-61
2023/05/26 03:26:42;;;;;;;27.95;6.20;;;10.70;99.90;;;;;;5032805;28;20103;-61
2023/05/26 03:29:09;;;;;;;30.92;6.22;;;10.60;99.90;;;;;;5032843;28;20451;-58
2023/05/26 03:31:35;;;;;;;27.27;5.75;;;10.60;99.90;;;;;;5034918;28;20476;-60
2023/05/26 03:34:02;;;;;;;30.42;6.90;;;10.60;99.90;;;;;;5036948;28;20103;-61
2023/05/26 03:36:29;;;;;;;24.70;5.63;;;10.60;99.90;;;;;;5035301;28;20198;-60
2023/05/26 03:39:06;;;;;;;23.67;5.68;;;10.60;99.90;;;;;;5035265;28;20045;-61
2023/05/26 03:41:34;;;;;;;26.63;6.07;;;10.50;99.90;;;;;;5035669;28;20476;-61
2023/05/26 03:44:01;;;;;;;27.23;6.55;;;10.50;99.90;;;;;;5035432;28;20057;-60
2023/05/26 03:46:27;;;;;;;31.65;6.20;;;10.50;99.90;;;;;;5035114;28;20110;-60
2023/05/26 03:48:54;;;;;;;27.52;6.07;;;10.50;99.90;;;;;;5035335;28;20052;-60
2023/05/26 03:51:22;;;;;;;33.00;6.97;;;10.50;99.90;;;;;;5035218;28;20045;-60
2023/05/26 03:53:50;;;;;;;32.20;6.78;;;10.60;99.90;;;;;;5035252;28;20072;-60
2023/05/26 03:56:17;;;;;;;25.92;6.32;;;10.50;99.90;;;;;;5034755;28;20056;-61
2023/05/26 03:58:44;;;;;;;24.90;6.05;;;10.50;99.90;;;;;;5036325;28;20126;-60
2023/05/26 04:01:12;;;;;;;23.67;5.60;;;10.50;99.90;;;;;;5036241;28;20057;-60
2023/05/26 04:03:39;;;;;;;27.05;5.70;;;10.60;99.90;;;;;;5035997;28;20515;-60
2023/05/26 04:06:11;;;;;;;21.40;5.65;;;10.60;99.90;;;;;;5034699;28;20045;-60
2023/05/26 04:08:38;;;;;;;24.25;6.47;;;10.50;99.90;;;;;;5035335;28;20041;-59
2023/05/26 04:11:05;;;;;;;22.95;5.97;;;10.50;99.90;;;;;;5036011;28;20045;-61
2023/05/26 04:13:32;;;;;;;27.42;5.43;;;10.50;99.90;;;;;;5036145;28;20041;-60
2023/05/26 04:15:58;;;;;;;28.63;5.68;;;10.50;99.90;;;;;;5036022;28;20041;-61
2023/05/26 04:18:25;;;;;;;23.95;5.70;;;10.50;99.90;;;;;;5034585;28;20037;-61
2023/05/26 04:20:52;;;;;;;28.95;6.13;;;10.50;99.90;;;;;;5034576;28;20069;-61
2023/05/26 04:23:19;;;;;;;30.65;6.20;;;10.50;99.90;;;;;;5035244;28;20052;-61
2023/05/26 04:25:48;;;;;;;28.58;6.28;;;10.50;99.90;;;;;;5034525;28;20408;-61
2023/05/26 04:28:47;;;;;;;23.05;6.03;;;10.50;99.90;;;;;;5035445;28;20053;-61
2023/05/26 04:31:31;;;;;;;30.58;6.30;;;10.60;99.90;;;;;;5034667;28;20412;-61
2023/05/26 04:34:06;;;;;;;29.17;5.60;;;10.50;99.90;;;;;;5034521;28;20505;-61
2023/05/26 04:36:40;;;;;;;21.90;4.82;;;10.60;99.90;;;;;;5035461;28;20072;-60
2023/05/26 04:39:07;;;;;;;29.50;6.57;;;10.70;99.90;;;;;;5034714;28;20073;-61
2023/05/26 04:41:34;;;;;;;25.08;5.80;;;10.70;99.90;;;;;;5034931;28;20045;-60
2023/05/26 04:44:02;;;;;;;23.02;5.45;;;10.60;99.90;;;;;;5034622;28;20051;-61
2023/05/26 04:46:28;;;;;;;28.00;6.13;;;10.70;99.90;;;;;;5034418;28;20049;-61
2023/05/26 04:48:57;;;;;;;24.65;5.97;;;10.70;99.90;;;;;;5034305;28;20069;-60
2023/05/26 04:51:24;;;;;;;25.98;5.28;;;10.80;99.90;;;;;;5034235;28;20051;-61
2023/05/26 04:53:51;;;;;;;24.88;5.68;;;10.80;99.90;;;;;;5034213;28;20056;-61
2023/05/26 04:56:18;;;;;;;31.05;5.75;;;10.80;99.90;;;;;;5034382;28;20476;-61
2023/05/26 04:58:51;;;;;;;21.20;5.18;;;10.80;99.90;;;;;;5034206;28;20041;-60
2023/05/26 05:01:18;;;;;;;29.48;6.10;;;10.80;99.90;;;;;;5035842;28;20049;-61
2023/05/26 05:04:03;;;;;;;24.17;5.32;;;10.80;99.90;;;;;;5035495;28;20045;-59
2023/05/26 05:06:31;;;;;;;26.58;5.85;;;10.80;99.90;;;;;;5033888;28;20565;-60
2023/05/26 05:08:58;;;;;;;24.85;5.70;;;10.90;99.90;;;;;;5034014;28;20065;-61
2023/05/26 05:11:25;;;;;;;25.42;5.30;;;10.90;99.90;;;;;;5033678;28;20414;-60
2023/05/26 05:13:52;;;;;;;23.63;5.97;;;10.90;99.90;;;;;;5033703;28;20473;-60
2023/05/26 05:16:19;;;;;;;25.60;5.97;;;10.90;99.90;;;;;;5033754;28;20428;-61
2023/05/26 05:18:46;;;;;;;31.02;5.40;;;11.00;99.90;;;;;;5034860;28;20043;-61
2023/05/26 05:21:13;;;;;;;26.52;5.57;;;11.00;99.90;;;;;;5034929;28;20041;-60
2023/05/26 05:23:40;;;;;;;27.75;4.88;;;11.10;99.90;;;;;;5033960;28;20091;-62
2023/05/26 05:26:07;;;;;;;22.10;5.78;;;11.20;99.90;;;;;;5034737;28;20061;-60
2023/05/26 05:28:34;;;;;;;25.20;4.80;;;11.20;99.90;;;;;;5033582;28;20496;-61
2023/05/26 05:31:10;;;;;;;24.10;6.68;;;11.20;99.90;;;;;;5033596;28;20056;-60
2023/05/26 05:33:37;;;;;;;23.90;5.32;;;11.30;99.90;;;;;;5033395;28;20397;-59
2023/05/26 05:36:04;;;;;;;25.50;6.05;;;11.30;99.90;;;;;;5033137;28;20452;-61
2023/05/26 05:38:32;;;;;;;23.58;5.68;;;11.30;99.90;;;;;;5033209;28;20044;-60
2023/05/26 05:40:59;;;;;;;26.15;6.00;;;11.30;99.90;;;;;;5033190;28;20075;-60
2023/05/26 05:43:27;;;;;;;25.75;6.20;;;11.30;99.90;;;;;;5033324;28;20180;-60
2023/05/26 05:45:54;;;;;;;24.13;5.35;;;11.30;99.90;;;;;;5033281;28;20515;-60
2023/05/26 05:48:47;;;;;;;27.77;5.68;;;11.40;99.90;;;;;;5033565;28;20611;-60
2023/05/26 05:51:20;;;;;;;25.60;5.20;;;11.50;99.90;;;;;;5033633;28;20539;-59
2023/05/26 05:53:47;;;;;;;17.67;4.80;;;11.60;99.90;;;;;;5033449;28;20045;-60
2023/05/26 05:56:14;;;;;;;27.23;5.85;;;11.60;99.90;;;;;;5033078;28;20480;-60
2023/05/26 05:58:41;;;;;;;24.02;5.60;;;11.70;99.90;;;;;;5032983;28;20448;-60
2023/05/26 06:01:07;;;;;;;22.60;4.70;;;11.60;99.90;;;;;;5033387;28;20044;-60
2023/05/26 06:03:35;;;;;;;19.77;4.97;;;11.60;99.90;;;;;;5033086;28;20053;-60
2023/05/26 06:06:02;;;;;;;24.30;5.50;;;11.60;99.90;;;;;;5034273;28;20042;-61
2023/05/26 06:08:29;;;;;;;21.35;5.90;;;11.70;99.90;;;;;;5033188;28;20052;-61
2023/05/26 06:10:56;;;;;;;22.95;5.13;;;11.80;99.90;;;;;;5034330;28;20048;-61
2023/05/26 06:13:24;;;;;;;29.05;6.07;;;11.80;99.90;;;;;;5032693;28;20456;-61
2023/05/26 06:15:51;;;;;;;21.55;5.10;;;11.90;99.90;;;;;;5032748;28;20072;-60
2023/05/26 06:18:18;;;;;;;22.80;5.45;;;11.90;99.90;;;;;;5033132;28;20411;-60
2023/05/26 06:20:46;;;;;;;25.85;5.80;;;12.00;99.90;;;;;;5032241;28;20518;-60
2023/05/26 06:23:14;;;;;;;20.50;5.75;;;12.10;99.90;;;;;;5032578;28;20056;-61
2023/05/26 06:25:42;;;;;;;26.65;5.93;;;12.20;99.90;;;;;;5033563;28;20496;-60
2023/05/26 06:28:10;;;;;;;27.67;5.15;;;12.30;99.90;;;;;;5032420;28;20053;-60
2023/05/26 06:30:37;;;;;;;21.85;5.47;;;12.30;99.90;;;;;;5032993;28;20095;-60
2023/05/26 06:33:19;;;;;;;20.38;5.05;;;12.30;99.90;;;;;;5032724;28;20045;-60
2023/05/26 06:35:46;;;;;;;21.50;6.30;;;12.40;99.90;;;;;;5032154;28;20053;-60
2023/05/26 06:38:13;;;;;;;24.50;4.80;;;12.40;99.90;;;;;;5033391;28;20040;-60
2023/05/26 06:40:40;;;;;;;26.10;5.43;;;12.50;99.90;;;;;;5034000;28;20495;-59
2023/05/26 06:43:07;;;;;;;23.05;5.60;;;12.50;99.90;;;;;;5032212;28;20045;-61
2023/05/26 06:45:35;;;;;;;22.88;5.47;;;12.50;99.90;;;;;;5049980;28;20132;-61
2023/05/26 06:48:02;;;;;;;22.08;5.43;;;12.50;99.90;;;;;;5033100;28;20461;-60
2023/05/26 06:50:36;;;;;;;26.80;5.78;;;12.60;99.90;;;;;;5033227;28;20055;-61
2023/05/26 06:53:03;;;;;;;24.80;5.32;;;12.70;99.90;;;;;;5033476;28;20057;-60
2023/05/26 06:55:29;;;;;;;27.08;6.13;;;12.80;99.90;;;;;;5033757;28;20103;-60
2023/05/26 06:57:56;;;;;;;21.60;5.70;;;12.70;99.90;;;;;;5051087;28;20056;-60
2023/05/26 07:00:23;;;;;;;22.80;5.47;;;12.60;99.90;;;;;;5051089;28;20480;-59
2023/05/26 07:02:59;;;;;;;24.92;5.57;;;12.70;99.90;;;;;;5034249;28;20538;-58
2023/05/26 07:05:29;;;;;;;25.58;4.95;;;12.70;99.90;;;;;;5035885;28;20376;-61
2023/05/26 07:07:56;;;;;;;25.90;5.53;;;12.60;99.90;;;;;;5038974;28;20379;-61
2023/05/26 07:10:23;;;;;;;25.98;5.20;;;12.60;99.90;;;;;;5055743;28;20141;-61
2023/05/26 07:12:50;;;;;;;23.92;5.65;;;12.70;99.90;;;;;;5038945;28;20045;-59
2023/05/26 07:15:23;;;;;;;26.05;6.05;;;12.90;99.90;;;;;;5038652;28;20037;-60
2023/05/26 07:17:50;;;;;;;26.38;6.55;;;13.00;99.90;;;;;;5035689;28;20056;-61
2023/05/26 07:20:17;;;;;;;27.73;6.40;;;13.00;99.60;;;;;;5035671;28;20060;-59
2023/05/26 07:22:44;;;;;;;28.73;5.55;;;13.00;99.70;;;;;;5037671;28;20037;-60
2023/05/26 07:25:18;;;;;;;19.85;4.85;;;13.10;99.80;;;;;;5035953;28;20057;-61
2023/05/26 07:27:47;;;;;;;26.02;5.30;;;13.20;99.40;;;;;;5035694;28;20045;-61
2023/05/26 07:30:14;;;;;;;25.67;5.97;;;13.20;99.20;;;;;;5037268;28;20092;-61
2023/05/26 07:32:54;;;;;;;25.52;6.22;;;13.20;99.10;;;;;;5035720;28;20056;-60
2023/05/26 07:35:21;;;;;;;27.92;5.93;;;13.20;99.40;;;;;;5035849;28;20112;-58
2023/05/26 07:37:48;;;;;;;23.88;5.45;;;13.30;98.90;;;;;;5035410;28;20148;-59
2023/05/26 07:40:15;;;;;;;21.58;5.07;;;13.30;99.00;;;;;;5035963;28;20464;-59
2023/05/26 07:42:42;;;;;;;34.38;6.38;;;13.40;98.80;;;;;;5036961;28;20041;-59
2023/05/26 07:45:09;;;;;;;25.50;5.80;;;13.50;98.70;;;;;;5035683;28;20038;-58
2023/05/26 07:47:36;;;;;;;20.83;5.13;;;13.50;97.70;;;;;;5036545;28;20087;-59
2023/05/26 07:50:03;;;;;;;21.48;5.57;;;13.40;98.20;;;;;;5036876;28;20107;-58
2023/05/26 07:52:30;;;;;;;22.70;5.90;;;13.40;98.60;;;;;;5036932;28;20038;-59
2023/05/26 07:54:58;;;;;;;27.13;5.53;;;13.50;98.70;;;;;;5036466;28;20057;-58
2023/05/26 07:57:24;;;;;;;20.00;5.00;;;13.60;98.50;;;;;;5036348;28;20056;-59
2023/05/26 07:59:55;;;;;;;24.52;5.85;;;13.50;98.20;;;;;;5036405;28;20048;-59
2023/05/26 08:02:22;;;;;;;25.70;5.53;;;13.50;98.50;;;;;;5036455;28;20041;-60
2023/05/26 08:04:49;;;;;;;23.65;5.90;;;13.50;98.60;;;;;;5036708;28;20477;-59
2023/05/26 08:07:16;;;;;;;19.55;5.43;;;13.70;98.30;;;;;;5036632;28;20037;-58
2023/05/26 08:09:45;;;;;;;24.05;5.40;;;13.70;98.30;;;;;;5036490;28;20045;-60
2023/05/26 08:12:12;;;;;;;23.35;5.47;;;13.80;98.50;;;;;;5036006;28;20041;-59
2023/05/26 08:14:38;;;;;;;23.02;5.78;;;13.80;98.40;;;;;;5035967;28;20441;-59
2023/05/26 08:17:05;;;;;;;28.85;5.68;;;13.90;98.00;;;;;;5035033;28;20111;-59
2023/05/26 08:19:32;;;;;;;23.42;5.85;;;13.90;98.30;;;;;;5036155;28;20058;-59
2023/05/26 08:21:59;;;;;;;25.85;5.60;;;14.00;97.90;;;;;;5036090;28;20038;-59
2023/05/26 08:24:25;;;;;;;28.67;6.00;;;14.00;97.60;;;;;;5035950;28;20069;-60
2023/05/26 08:26:52;;;;;;;25.27;5.10;;;14.00;97.70;;;;;;5035972;28;20045;-59
2023/05/26 08:29:20;;;;;;;24.88;5.53;;;14.00;97.50;;;;;;5036249;28;20045;-59
2023/05/26 08:31:46;;;;;;;19.98;5.82;;;14.10;97.40;;;;;;5036250;28;20045;-58
2023/05/26 08:34:13;;;;;;;25.77;5.00;;;14.00;96.80;;;;;;5035999;28;20052;-59
2023/05/26 08:36:40;;;;;;;20.10;5.50;;;14.00;96.70;;;;;;5036034;28;20392;-60
2023/05/26 08:39:07;;;;;;;22.25;4.93;;;13.90;96.60;;;;;;5035815;28;20530;-59
2023/05/26 08:41:34;;;;;;;23.25;5.55;;;13.80;96.60;;;;;;5035844;28;20049;-59
2023/05/26 08:44:00;;;;;;;22.88;5.63;;;13.70;97.20;;;;;;5035638;28;20518;-59
2023/05/26 08:46:33;;;;;;;19.98;4.90;;;13.80;97.00;;;;;;5035456;28;20096;-60
2023/05/26 08:49:00;;;;;;;21.52;6.03;;;13.80;97.00;;;;;;5035877;28;20050;-58
2023/05/26 08:51:27;;;;;;;22.38;4.80;;;13.80;96.70;;;;;;5035327;28;20045;-59
2023/05/26 08:53:53;;;;;;;21.75;5.57;;;13.70;96.90;;;;;;5035475;28;20049;-57
2023/05/26 08:56:21;;;;;;;20.73;4.78;;;13.80;97.20;;;;;;5035190;28;20033;-58
2023/05/26 08:58:47;;;;;;;20.98;4.70;;;14.00;96.70;;;;;;5033767;28;20088;-59
2023/05/26 09:01:14;;;;;;;20.40;5.03;;;13.90;96.80;;;;;;5035163;28;20065;-60
2023/05/26 09:03:41;;;;;;;19.27;5.22;;;14.00;96.90;;;;;;5035212;28;20073;-59
2023/05/26 09:06:08;;;;;;;17.13;5.13;;;14.10;96.50;;;;;;5035359;28;20046;-59
2023/05/26 09:08:35;;;;;;;25.63;5.30;;;14.10;96.40;;;;;;5034913;28;20037;-58
2023/05/26 09:11:01;;;;;;;18.88;4.82;;;14.20;96.80;;;;;;5034715;28;20055;-60
2023/05/26 09:13:28;;;;;;;25.63;5.85;;;14.30;96.60;;;;;;5034790;28;20103;-59
2023/05/26 09:15:55;;;;;;;25.83;5.05;;;14.30;96.30;;;;;;5035137;28;20049;-58
2023/05/26 09:18:39;;;;;;;23.58;4.95;;;14.20;96.10;;;;;;5034829;28;20064;-60
2023/05/26 09:21:06;;;;;;;18.08;4.30;;;14.20;95.90;;;;;;5035051;28;20054;-59
2023/05/26 09:23:33;;;;;;;20.38;5.72;;;14.20;96.20;;;;;;5034880;28;20041;-59
2023/05/26 09:26:02;;;;;;;25.50;6.03;;;14.30;96.60;;;;;;5034839;28;20041;-59
2023/05/26 09:28:29;;;;;;;19.92;5.13;;;14.40;96.30;;;;;;5034690;28;20045;-59
2023/05/26 09:30:55;;;;;;;17.20;4.45;;;14.50;96.30;;;;;;5034533;28;20050;-56
2023/05/26 09:33:22;;;;;;;21.73;4.85;;;14.40;96.00;;;;;;5034964;28;20037;-59
2023/05/26 09:35:49;;;;;;;23.60;6.07;;;14.40;96.40;;;;;;5034729;28;20037;-59
2023/05/26 09:38:16;;;;;;;24.25;5.47;;;14.50;95.70;;;;;;5034543;28;20120;-59
2023/05/26 09:40:43;;;;;;;17.88;4.88;;;14.50;95.00;;;;;;5035185;28;20079;-57
2023/05/26 09:43:10;;;;;;;25.02;4.95;;;14.50;95.20;;;;;;5034528;28;20464;-60
2023/05/26 09:45:36;;;;;;;24.00;5.07;;;14.50;95.20;;;;;;5034372;28;20048;-59
2023/05/26 09:48:03;;;;;;;18.60;4.95;;;14.50;95.60;;;;;;5034577;28;20451;-59
2023/05/26 09:50:30;;;;;;;23.48;4.85;;;14.60;95.20;;;;;;5034830;28;20038;-59
2023/05/26 09:52:57;;;;;;;39.45;5.88;;;14.60;95.20;;;;;;5034582;28;20034;-59
2023/05/26 09:55:24;;;;;;;22.52;5.18;;;14.70;94.70;;;;;;5034445;28;20047;-59
2023/05/26 09:57:50;;;;;;;25.00;5.55;;;14.70;94.90;;;;;;5034214;28;20558;-58
2023/05/26 10:00:18;;;;;;;21.33;4.78;;;14.80;94.80;;;;;;5034294;28;20041;-58
2023/05/26 10:02:45;;;;;;;22.23;5.05;;;14.80;95.10;;;;;;5034667;28;20480;-59
2023/05/26 10:05:11;;;;;;;19.05;5.43;;;14.80;95.40;;;;;;5034352;28;20033;-58
2023/05/26 10:07:38;;;;;;;22.33;5.05;;;14.90;95.10;;;;;;5034255;28;20045;-56
2023/05/26 10:10:05;;;;;;;18.15;4.35;;;14.90;94.40;;;;;;5034063;28;20057;-59
2023/05/26 10:12:32;;;;;;;21.50;4.88;;;14.90;93.70;;;;;;5034003;28;20046;-56
2023/05/26 10:14:59;;;;;;;17.95;4.80;;;14.80;94.00;;;;;;5034131;28;20045;-59
2023/05/26 10:17:26;;;;;;;18.80;4.55;;;14.70;94.60;;;;;;5034163;28;20072;-59
2023/05/26 10:19:53;;;;;;;19.85;5.15;;;14.80;94.90;;;;;;5033737;28;20041;-59
2023/05/26 10:22:20;;;;;;;21.42;4.97;;;14.90;95.20;;;;;;5034112;28;20048;-58
2023/05/26 10:24:47;;;;;;;22.92;5.82;;;15.00;94.70;;;;;;5034222;28;20049;-59
2023/05/26 10:27:14;;;;;;;22.38;4.63;;;15.00;94.20;;;;;;5033803;28;20376;-59
2023/05/26 10:29:44;;;;;;;18.50;4.43;;;15.10;94.00;;;;;;5033745;28;20427;-58
2023/05/26 10:32:10;;;;;;;17.83;4.75;;;15.20;94.20;;;;;;5033753;28;20048;-59
2023/05/26 10:34:38;;;;;;;21.52;5.07;;;15.10;93.80;;;;;;5034094;28;20128;-59
2023/05/26 10:37:09;;;;;;;23.52;5.05;;;15.00;93.80;;;;;;5033705;28;20049;-60
2023/05/26 10:39:35;;;;;;;22.02;4.55;;;15.10;93.60;;;;;;5033032;28;20069;-59
2023/05/26 10:42:02;;;;;;;17.33;4.53;;;15.00;93.70;;;;;;5033834;28;20048;-59
2023/05/26 10:44:29;;;;;;;15.88;4.78;;;15.00;93.30;;;;;;5034106;28;20103;-59
2023/05/26 10:46:56;;;;;;;15.65;4.63;;;15.10;92.80;;;;;;5034000;28;20424;-59
2023/05/26 10:49:22;;;;;;;22.23;4.88;;;15.10;93.20;;;;;;5032233;28;20044;-58
2023/05/26 10:51:50;;;;;;;22.00;4.43;;;15.10;93.40;;;;;;5032067;28;20053;-58
2023/05/26 10:54:18;;;;;;;22.25;4.88;;;15.10;93.70;;;;;;5033710;28;20048;-58
2023/05/26 10:56:45;;;;;;;23.85;5.88;;;15.10;94.50;;;;;;5033256;28;20049;-59
2023/05/26 10:59:12;;;;;;;23.75;5.05;;;15.30;95.10;;;;;;5033298;28;20432;-59
2023/05/26 11:01:38;;;;;;;23.88;5.20;;;15.40;94.00;;;;;;5033965;28;20128;-59
2023/05/26 11:04:05;;;;;;;15.88;4.10;;;15.40;93.90;;;;;;5033990;28;20050;-59
2023/05/26 11:06:32;;;;;;;18.10;5.22;;;15.50;93.20;;;;;;5033247;28;20502;-59
2023/05/26 11:08:59;;;;;;;20.88;4.70;;;15.60;93.00;;;;;;5033571;28;20041;-59
2023/05/26 11:11:26;;;;;;;18.25;4.63;;;15.50;93.30;;;;;;5033407;28;20559;-59
2023/05/26 11:13:57;;;;;;;19.92;4.55;;;15.60;93.70;;;;;;5032372;28;20046;-59
2023/05/26 11:16:23;;;;;;;15.43;4.53;;;15.70;93.90;;;;;;5033510;28;20053;-59
2023/05/26 11:18:51;;;;;;;24.13;4.55;;;15.80;92.70;;;;;;5033273;28;20040;-59
2023/05/26 11:21:17;;;;;;;27.42;4.80;;;15.70;93.10;;;;;;5032803;28;20053;-60
2023/05/26 11:23:44;;;;;;;29.00;5.75;;;15.60;92.90;;;;;;5033118;28;20050;-60
2023/05/26 11:26:11;;;;;;;29.05;5.68;;;15.70;93.40;;;;;;5033307;28;20044;-60
2023/05/26 11:28:38;;;;;;;20.42;4.95;;;15.80;93.50;;;;;;5033053;28;20314;-60
2023/05/26 11:31:05;;;;;;;22.38;5.22;;;15.90;93.30;;;;;;5033620;28;20487;-59
2023/05/26 11:33:32;;;;;;;21.23;4.72;;;15.90;93.10;;;;;;5015841;28;20053;-59
2023/05/26 11:35:58;;;;;;;29.48;4.68;;;15.90;93.40;;;;;;5033228;28;20038;-59
2023/05/26 11:38:25;;;;;;;22.98;4.90;;;15.90;93.40;;;;;;5033430;28;20048;-59
2023/05/26 11:40:52;;;;;;;20.63;4.90;;;15.90;93.20;;;;;;5033129;28;20116;-60
2023/05/26 11:43:19;;;;;;;24.75;4.95;;;16.00;93.80;;;;;;5033006;28;20068;-60
2023/05/26 11:45:45;;;;;;;15.52;4.90;;;16.10;93.30;;;;;;5032887;28;20120;-60
2023/05/26 11:48:12;;;;;;;15.82;4.25;;;16.10;92.50;;;;;;5033213;28;20041;-60
2023/05/26 11:50:39;;;;;;;18.80;4.88;;;16.00;92.90;;;;;;5033283;28;20068;-58
2023/05/26 11:53:06;;;;;;;23.83;5.13;;;16.00;93.20;;;;;;5036646;28;20042;-61
2023/05/26 11:55:35;;;;;;;18.63;4.50;;;16.10;93.10;;;;;;5036971;28;20041;-60
2023/05/26 11:58:01;;;;;;;18.65;4.30;;;16.20;93.00;;;;;;5036373;28;20559;-60
2023/05/26 12:00:28;;;;;;;17.38;4.45;;;16.20;92.70;;;;;;5036533;28;20065;-60
2023/05/26 12:02:55;;;;;;;19.70;4.38;;;16.20;92.50;;;;;;5036662;28;20041;-60
2023/05/26 12:05:29;;;;;;;21.33;4.55;;;16.20;92.80;;;;;;5036093;28;20072;-60
2023/05/26 12:07:56;;;;;;;19.00;4.45;;;16.20;92.30;;;;;;5036125;28;20069;-61
2023/05/26 12:10:22;;;;;;;16.45;3.83;;;16.30;92.40;;;;;;5036528;28;20037;-59
2023/05/26 12:12:49;;;;;;;15.63;4.18;;;16.40;92.50;;;;;;5036719;28;20107;-61
2023/05/26 12:15:16;;;;;;;17.25;4.15;;;16.50;92.30;;;;;;5035591;28;20369;-59
2023/05/26 12:17:43;;;;;;;17.73;4.28;;;16.50;92.70;;;;;;5036096;28;20091;-60
2023/05/26 12:20:10;;;;;;;19.50;4.30;;;16.60;92.60;;;;;;5035765;28;20042;-59
2023/05/26 12:23:03;;;;;;;22.05;5.35;;;16.70;93.00;;;;;;5036537;28;20087;-60
2023/05/26 12:25:30;;;;;;;26.52;4.55;;;16.70;92.80;;;;;;5035903;28;20045;-60
2023/05/26 12:27:56;;;;;;;24.05;4.63;;;16.70;92.30;;;;;;5035933;28;20034;-60
2023/05/26 12:30:23;;;;;;;24.27;4.82;;;16.70;92.40;;;;;;5036237;28;20469;-59
2023/05/26 12:33:02;;;;;;;20.00;4.50;;;16.80;92.30;;;;;;5036138;28;20069;-60
2023/05/26 12:35:29;;;;;;;19.40;4.30;;;16.90;91.70;;;;;;5035594;28;20045;-60
2023/05/26 12:37:55;;;;;;;17.42;4.88;;;16.80;92.30;;;;;;5036124;28;20053;-60